sensor_id;sensor_type;location;lat;lon;timestamp;P1;durP1;ratioP1;P2;durP2;ratioP2
42098;SDS011;27758;55.900;8.516;2023-02-15T00:01:30;87.18;;;35.72;;
42098;SDS011;27758;55.900;8.516;2023-02-15T00:03:56;94.95;;;39.22;;
42098;SDS011;27758;55.900;8.516;2023-02-15T00:06:22;91.05;;;37.97;;
42098;SDS011;27758;55.900;8.516;2023-02-15T00:08:47;92.65;;;39.33;;
42098;SDS011;27758;55.900;8.516;2023-02-15T00:11:14;106.43;;;43.03;;
42098;SDS011;27758;55.900;8.516;2023-02-15T00:13:41;94.88;;;40.08;;
42098;SDS011;27758;55.900;8.516;2023-02-15T00:16:08;91.47;;;39.63;;
42098;SDS011;27758;55.900;8.516;2023-02-15T00:18:36;97.05;;;39.70;;
42098;SDS011;27758;55.900;8.516;2023-02-15T00:21:07;95.10;;;39.25;;
42098;SDS011;27758;55.900;8.516;2023-02-15T00:23:34;94.10;;;38.50;;
42098;SDS011;27758;55.900;8.516;2023-02-15T00:26:07;103.45;;;40.95;;
42098;SDS011;27758;55.900;8.516;2023-02-15T00:28:35;93.88;;;37.33;;
42098;SDS011;27758;55.900;8.516;2023-02-15T00:31:10;89.53;;;37.67;;
42098;SDS011;27758;55.900;8.516;2023-02-15T00:33:37;94.45;;;38.10;;
42098;SDS011;27758;55.900;8.516;2023-02-15T00:36:05;99.20;;;40.50;;
42098;SDS011;27758;55.900;8.516;2023-02-15T00:38:34;108.18;;;41.50;;
42098;SDS011;27758;55.900;8.516;2023-02-15T00:41:01;95.90;;;39.10;;
42098;SDS011;27758;55.900;8.516;2023-02-15T00:43:29;96.93;;;40.85;;
42098;SDS011;27758;55.900;8.516;2023-02-15T00:45:56;93.80;;;38.33;;
42098;SDS011;27758;55.900;8.516;2023-02-15T00:48:22;86.07;;;36.42;;
42098;SDS011;27758;55.900;8.516;2023-02-15T00:50:48;94.88;;;36.33;;
42098;SDS011;27758;55.900;8.516;2023-02-15T00:53:15;94.32;;;37.97;;
42098;SDS011;27758;55.900;8.516;2023-02-15T00:55:41;98.45;;;39.13;;
42098;SDS011;27758;55.900;8.516;2023-02-15T00:58:07;108.40;;;43.55;;
42098;SDS011;27758;55.900;8.516;2023-02-15T01:00:34;100.45;;;38.80;;
42098;SDS011;27758;55.900;8.516;2023-02-15T01:02:59;95.75;;;40.03;;
42098;SDS011;27758;55.900;8.516;2023-02-15T01:05:25;104.18;;;39.90;;
42098;SDS011;27758;55.900;8.516;2023-02-15T01:07:51;104.03;;;41.35;;
42098;SDS011;27758;55.900;8.516;2023-02-15T01:10:17;100.03;;;37.53;;
42098;SDS011;27758;55.900;8.516;2023-02-15T01:12:43;96.82;;;38.13;;
42098;SDS011;27758;55.900;8.516;2023-02-15T01:15:09;104.68;;;40.55;;
42098;SDS011;27758;55.900;8.516;2023-02-15T01:17:35;90.20;;;38.85;;
42098;SDS011;27758;55.900;8.516;2023-02-15T01:20:00;98.20;;;38.88;;
42098;SDS011;27758;55.900;8.516;2023-02-15T01:22:26;95.75;;;37.20;;
42098;SDS011;27758;55.900;8.516;2023-02-15T01:24:52;86.43;;;35.97;;
42098;SDS011;27758;55.900;8.516;2023-02-15T01:27:18;103.70;;;39.90;;
42098;SDS011;27758;55.900;8.516;2023-02-15T01:29:44;93.88;;;36.90;;
42098;SDS011;27758;55.900;8.516;2023-02-15T01:32:09;100.68;;;40.25;;
42098;SDS011;27758;55.900;8.516;2023-02-15T01:34:35;93.72;;;36.53;;
42098;SDS011;27758;55.900;8.516;2023-02-15T01:37:01;91.60;;;36.15;;
42098;SDS011;27758;55.900;8.516;2023-02-15T01:39:27;94.72;;;35.53;;
42098;SDS011;27758;55.900;8.516;2023-02-15T01:41:52;85.05;;;35.55;;
42098;SDS011;27758;55.900;8.516;2023-02-15T01:47:32;94.28;;;36.95;;
42098;SDS011;27758;55.900;8.516;2023-02-15T01:55:53;92.15;;;35.22;;
42098;SDS011;27758;55.900;8.516;2023-02-15T01:58:22;93.15;;;36.15;;
42098;SDS011;27758;55.900;8.516;2023-02-15T02:00:51;86.53;;;35.38;;
42098;SDS011;27758;55.900;8.516;2023-02-15T02:03:18;92.63;;;35.97;;
42098;SDS011;27758;55.900;8.516;2023-02-15T02:05:54;82.07;;;34.85;;
42098;SDS011;27758;55.900;8.516;2023-02-15T02:08:20;93.30;;;34.97;;
42098;SDS011;27758;55.900;8.516;2023-02-15T02:10:45;86.78;;;35.58;;
42098;SDS011;27758;55.900;8.516;2023-02-15T02:13:11;88.70;;;35.45;;
42098;SDS011;27758;55.900;8.516;2023-02-15T02:23:45;92.18;;;36.53;;
42098;SDS011;27758;55.900;8.516;2023-02-15T02:29:13;101.88;;;37.97;;
42098;SDS011;27758;55.900;8.516;2023-02-15T02:35:22;83.00;;;33.20;;
42098;SDS011;27758;55.900;8.516;2023-02-15T02:38:03;89.40;;;35.63;;
42098;SDS011;27758;55.900;8.516;2023-02-15T02:40:49;101.88;;;37.28;;
42098;SDS011;27758;55.900;8.516;2023-02-15T02:43:20;101.30;;;36.72;;
42098;SDS011;27758;55.900;8.516;2023-02-15T02:46:05;90.70;;;37.47;;
42098;SDS011;27758;55.900;8.516;2023-02-15T02:48:38;97.60;;;38.75;;
42098;SDS011;27758;55.900;8.516;2023-02-15T02:51:04;97.70;;;37.83;;
42098;SDS011;27758;55.900;8.516;2023-02-15T02:53:30;99.68;;;38.88;;
42098;SDS011;27758;55.900;8.516;2023-02-15T02:56:10;98.78;;;39.88;;
42098;SDS011;27758;55.900;8.516;2023-02-15T02:58:47;103.22;;;38.05;;
42098;SDS011;27758;55.900;8.516;2023-02-15T03:01:24;91.95;;;36.60;;
42098;SDS011;27758;55.900;8.516;2023-02-15T03:03:57;96.55;;;37.53;;
42098;SDS011;27758;55.900;8.516;2023-02-15T03:06:29;90.18;;;36.35;;
42098;SDS011;27758;55.900;8.516;2023-02-15T03:09:09;90.82;;;36.63;;
42098;SDS011;27758;55.900;8.516;2023-02-15T03:11:40;92.88;;;39.17;;
42098;SDS011;27758;55.900;8.516;2023-02-15T03:14:07;100.28;;;38.30;;
42098;SDS011;27758;55.900;8.516;2023-02-15T03:16:34;99.07;;;39.92;;
42098;SDS011;27758;55.900;8.516;2023-02-15T03:19:01;87.50;;;35.50;;
42098;SDS011;27758;55.900;8.516;2023-02-15T03:21:35;89.47;;;35.63;;
42098;SDS011;27758;55.900;8.516;2023-02-15T03:24:24;89.25;;;36.08;;
42098;SDS011;27758;55.900;8.516;2023-02-15T03:26:56;101.35;;;40.42;;
42098;SDS011;27758;55.900;8.516;2023-02-15T03:29:24;102.47;;;39.45;;
42098;SDS011;27758;55.900;8.516;2023-02-15T03:31:54;98.35;;;38.58;;
42098;SDS011;27758;55.900;8.516;2023-02-15T03:34:25;101.10;;;38.58;;
42098;SDS011;27758;55.900;8.516;2023-02-15T03:37:00;93.32;;;38.03;;
42098;SDS011;27758;55.900;8.516;2023-02-15T03:39:36;103.15;;;39.90;;
42098;SDS011;27758;55.900;8.516;2023-02-15T03:42:28;97.75;;;40.20;;
42098;SDS011;27758;55.900;8.516;2023-02-15T03:47:33;103.30;;;40.40;;
42098;SDS011;27758;55.900;8.516;2023-02-15T03:52:59;103.68;;;39.72;;
42098;SDS011;27758;55.900;8.516;2023-02-15T03:55:28;100.13;;;39.07;;
42098;SDS011;27758;55.900;8.516;2023-02-15T03:57:54;111.18;;;41.92;;
42098;SDS011;27758;55.900;8.516;2023-02-15T04:00:40;105.15;;;40.58;;
42098;SDS011;27758;55.900;8.516;2023-02-15T04:03:33;105.75;;;39.67;;
42098;SDS011;27758;55.900;8.516;2023-02-15T04:06:05;111.55;;;41.65;;
42098;SDS011;27758;55.900;8.516;2023-02-15T04:08:31;112.22;;;41.65;;
42098;SDS011;27758;55.900;8.516;2023-02-15T04:11:15;106.55;;;40.85;;
42098;SDS011;27758;55.900;8.516;2023-02-15T04:13:42;104.75;;;40.90;;
42098;SDS011;27758;55.900;8.516;2023-02-15T04:16:10;109.10;;;41.70;;
42098;SDS011;27758;55.900;8.516;2023-02-15T04:18:40;118.32;;;43.58;;
42098;SDS011;27758;55.900;8.516;2023-02-15T04:21:27;119.25;;;43.22;;
42098;SDS011;27758;55.900;8.516;2023-02-15T04:24:13;125.60;;;45.05;;
42098;SDS011;27758;55.900;8.516;2023-02-15T04:26:58;140.45;;;46.67;;
42098;SDS011;27758;55.900;8.516;2023-02-15T04:29:26;137.50;;;46.97;;
42098;SDS011;27758;55.900;8.516;2023-02-15T04:31:53;134.00;;;48.58;;
42098;SDS011;27758;55.900;8.516;2023-02-15T04:34:19;131.80;;;46.67;;
42098;SDS011;27758;55.900;8.516;2023-02-15T04:36:45;137.18;;;47.53;;
42098;SDS011;27758;55.900;8.516;2023-02-15T04:39:14;142.65;;;47.95;;
42098;SDS011;27758;55.900;8.516;2023-02-15T04:41:41;140.32;;;49.38;;
42098;SDS011;27758;55.900;8.516;2023-02-15T04:44:08;143.60;;;48.58;;
42098;SDS011;27758;55.900;8.516;2023-02-15T04:46:34;153.02;;;55.03;;
42098;SDS011;27758;55.900;8.516;2023-02-15T04:48:59;162.85;;;51.38;;
42098;SDS011;27758;55.900;8.516;2023-02-15T04:51:25;146.35;;;48.97;;
42098;SDS011;27758;55.900;8.516;2023-02-15T04:53:51;169.13;;;50.90;;
42098;SDS011;27758;55.900;8.516;2023-02-15T04:56:19;184.40;;;54.40;;
42098;SDS011;27758;55.900;8.516;2023-02-15T04:58:45;165.27;;;49.60;;
42098;SDS011;27758;55.900;8.516;2023-02-15T05:01:11;154.25;;;50.50;;
42098;SDS011;27758;55.900;8.516;2023-02-15T05:03:37;170.43;;;51.80;;
42098;SDS011;27758;55.900;8.516;2023-02-15T05:06:03;189.90;;;52.03;;
42098;SDS011;27758;55.900;8.516;2023-02-15T05:08:29;207.38;;;53.58;;
42098;SDS011;27758;55.900;8.516;2023-02-15T05:10:55;139.70;;;46.45;;
42098;SDS011;27758;55.900;8.516;2023-02-15T05:13:21;156.63;;;49.42;;
42098;SDS011;27758;55.900;8.516;2023-02-15T05:15:50;155.95;;;46.88;;
42098;SDS011;27758;55.900;8.516;2023-02-15T05:18:17;183.57;;;49.42;;
42098;SDS011;27758;55.900;8.516;2023-02-15T05:20:45;244.13;;;53.80;;
42098;SDS011;27758;55.900;8.516;2023-02-15T05:23:11;286.48;;;60.50;;
42098;SDS011;27758;55.900;8.516;2023-02-15T05:25:36;185.02;;;52.63;;
42098;SDS011;27758;55.900;8.516;2023-02-15T05:28:21;154.15;;;45.70;;
42098;SDS011;27758;55.900;8.516;2023-02-15T05:30:48;143.10;;;48.78;;
42098;SDS011;27758;55.900;8.516;2023-02-15T05:33:23;190.30;;;50.38;;
42098;SDS011;27758;55.900;8.516;2023-02-15T05:35:49;211.38;;;53.90;;
42098;SDS011;27758;55.900;8.516;2023-02-15T05:38:16;232.65;;;54.97;;
42098;SDS011;27758;55.900;8.516;2023-02-15T05:40:41;313.00;;;60.75;;
42098;SDS011;27758;55.900;8.516;2023-02-15T05:43:07;194.15;;;53.03;;
42098;SDS011;27758;55.900;8.516;2023-02-15T05:45:33;193.70;;;52.13;;
42098;SDS011;27758;55.900;8.516;2023-02-15T05:47:58;183.70;;;49.90;;
42098;SDS011;27758;55.900;8.516;2023-02-15T05:50:24;151.50;;;47.38;;
42098;SDS011;27758;55.900;8.516;2023-02-15T05:52:51;139.63;;;47.95;;
42098;SDS011;27758;55.900;8.516;2023-02-15T05:55:17;143.85;;;48.15;;
42098;SDS011;27758;55.900;8.516;2023-02-15T05:57:43;297.30;;;61.58;;
42098;SDS011;27758;55.900;8.516;2023-02-15T06:00:09;141.65;;;47.80;;
42098;SDS011;27758;55.900;8.516;2023-02-15T06:02:36;130.95;;;48.92;;
42098;SDS011;27758;55.900;8.516;2023-02-15T06:05:02;134.27;;;50.20;;
42098;SDS011;27758;55.900;8.516;2023-02-15T06:07:29;140.90;;;48.75;;
42098;SDS011;27758;55.900;8.516;2023-02-15T06:09:55;275.75;;;61.13;;
42098;SDS011;27758;55.900;8.516;2023-02-15T06:12:21;193.68;;;56.55;;
42098;SDS011;27758;55.900;8.516;2023-02-15T06:14:46;168.13;;;50.88;;
42098;SDS011;27758;55.900;8.516;2023-02-15T06:17:12;181.48;;;51.53;;
42098;SDS011;27758;55.900;8.516;2023-02-15T06:19:38;137.60;;;48.33;;
42098;SDS011;27758;55.900;8.516;2023-02-15T06:22:03;147.18;;;51.33;;
42098;SDS011;27758;55.900;8.516;2023-02-15T06:24:31;251.30;;;56.95;;
42098;SDS011;27758;55.900;8.516;2023-02-15T06:26:57;222.55;;;56.72;;
42098;SDS011;27758;55.900;8.516;2023-02-15T06:29:22;171.05;;;53.20;;
42098;SDS011;27758;55.900;8.516;2023-02-15T06:31:48;154.70;;;49.63;;
42098;SDS011;27758;55.900;8.516;2023-02-15T06:34:14;136.40;;;50.10;;
42098;SDS011;27758;55.900;8.516;2023-02-15T06:36:40;169.80;;;51.05;;
42098;SDS011;27758;55.900;8.516;2023-02-15T06:39:05;291.80;;;62.72;;
42098;SDS011;27758;55.900;8.516;2023-02-15T06:41:31;181.45;;;52.42;;
42098;SDS011;27758;55.900;8.516;2023-02-15T06:43:58;246.75;;;60.05;;
42098;SDS011;27758;55.900;8.516;2023-02-15T06:46:24;173.07;;;51.38;;
42098;SDS011;27758;55.900;8.516;2023-02-15T06:48:50;154.82;;;51.35;;
42098;SDS011;27758;55.900;8.516;2023-02-15T06:51:15;144.57;;;51.45;;
42098;SDS011;27758;55.900;8.516;2023-02-15T06:53:41;319.65;;;68.00;;
42098;SDS011;27758;55.900;8.516;2023-02-15T06:56:08;177.27;;;51.92;;
42098;SDS011;27758;55.900;8.516;2023-02-15T06:58:38;343.33;;;64.18;;
42098;SDS011;27758;55.900;8.516;2023-02-15T07:01:06;253.48;;;54.92;;
42098;SDS011;27758;55.900;8.516;2023-02-15T07:03:32;147.25;;;46.80;;
42098;SDS011;27758;55.900;8.516;2023-02-15T07:05:58;265.80;;;55.60;;
42098;SDS011;27758;55.900;8.516;2023-02-15T07:08:25;167.23;;;44.90;;
42098;SDS011;27758;55.900;8.516;2023-02-15T07:10:52;328.58;;;58.33;;
42098;SDS011;27758;55.900;8.516;2023-02-15T07:13:19;201.43;;;51.22;;
42098;SDS011;27758;55.900;8.516;2023-02-15T07:15:46;151.60;;;47.88;;
42098;SDS011;27758;55.900;8.516;2023-02-15T07:18:12;200.48;;;49.38;;
42098;SDS011;27758;55.900;8.516;2023-02-15T07:20:38;289.25;;;58.50;;
42098;SDS011;27758;55.900;8.516;2023-02-15T07:23:07;200.45;;;51.08;;
42098;SDS011;27758;55.900;8.516;2023-02-15T07:25:33;279.15;;;57.53;;
42098;SDS011;27758;55.900;8.516;2023-02-15T07:27:59;222.73;;;58.83;;
42098;SDS011;27758;55.900;8.516;2023-02-15T07:30:26;270.77;;;61.10;;
42098;SDS011;27758;55.900;8.516;2023-02-15T07:32:56;248.10;;;59.97;;
42098;SDS011;27758;55.900;8.516;2023-02-15T07:35:50;253.32;;;56.17;;
42098;SDS011;27758;55.900;8.516;2023-02-15T07:38:17;193.75;;;55.10;;
42098;SDS011;27758;55.900;8.516;2023-02-15T07:40:44;188.00;;;56.50;;
42098;SDS011;27758;55.900;8.516;2023-02-15T07:43:10;159.13;;;52.90;;
42098;SDS011;27758;55.900;8.516;2023-02-15T07:45:37;251.90;;;62.38;;
42098;SDS011;27758;55.900;8.516;2023-02-15T07:48:03;178.73;;;50.28;;
42098;SDS011;27758;55.900;8.516;2023-02-15T07:50:29;154.57;;;48.92;;
42098;SDS011;27758;55.900;8.516;2023-02-15T07:52:55;256.55;;;60.70;;
42098;SDS011;27758;55.900;8.516;2023-02-15T07:55:21;183.27;;;52.38;;
42098;SDS011;27758;55.900;8.516;2023-02-15T07:57:47;173.48;;;52.63;;
42098;SDS011;27758;55.900;8.516;2023-02-15T08:00:15;247.10;;;60.72;;
42098;SDS011;27758;55.900;8.516;2023-02-15T08:02:42;213.18;;;56.38;;
42098;SDS011;27758;55.900;8.516;2023-02-15T08:05:13;310.85;;;63.65;;
42098;SDS011;27758;55.900;8.516;2023-02-15T08:07:39;180.07;;;51.88;;
42098;SDS011;27758;55.900;8.516;2023-02-15T08:10:05;209.65;;;58.55;;
42098;SDS011;27758;55.900;8.516;2023-02-15T08:12:31;143.15;;;49.75;;
42098;SDS011;27758;55.900;8.516;2023-02-15T08:14:58;182.00;;;54.83;;
42098;SDS011;27758;55.900;8.516;2023-02-15T08:17:23;226.68;;;56.00;;
42098;SDS011;27758;55.900;8.516;2023-02-15T08:19:49;142.50;;;50.47;;
42098;SDS011;27758;55.900;8.516;2023-02-15T08:22:15;166.52;;;49.42;;
42098;SDS011;27758;55.900;8.516;2023-02-15T08:24:40;197.40;;;53.53;;
42098;SDS011;27758;55.900;8.516;2023-02-15T08:27:07;316.77;;;64.47;;
42098;SDS011;27758;55.900;8.516;2023-02-15T08:29:35;160.77;;;51.00;;
42098;SDS011;27758;55.900;8.516;2023-02-15T08:32:03;152.07;;;53.03;;
42098;SDS011;27758;55.900;8.516;2023-02-15T08:34:32;240.00;;;55.92;;
42098;SDS011;27758;55.900;8.516;2023-02-15T08:37:02;157.48;;;50.55;;
42098;SDS011;27758;55.900;8.516;2023-02-15T08:39:28;341.70;;;66.32;;
42098;SDS011;27758;55.900;8.516;2023-02-15T08:41:54;160.20;;;48.10;;
42098;SDS011;27758;55.900;8.516;2023-02-15T08:44:20;125.22;;;46.35;;
42098;SDS011;27758;55.900;8.516;2023-02-15T08:46:46;172.13;;;53.67;;
42098;SDS011;27758;55.900;8.516;2023-02-15T08:49:15;260.67;;;61.90;;
42098;SDS011;27758;55.900;8.516;2023-02-15T08:51:43;139.55;;;49.15;;
42098;SDS011;27758;55.900;8.516;2023-02-15T08:54:09;157.52;;;50.58;;
42098;SDS011;27758;55.900;8.516;2023-02-15T08:56:38;153.33;;;50.17;;
42098;SDS011;27758;55.900;8.516;2023-02-15T08:59:06;117.88;;;46.17;;
42098;SDS011;27758;55.900;8.516;2023-02-15T09:01:36;121.03;;;45.25;;
42098;SDS011;27758;55.900;8.516;2023-02-15T09:04:02;165.95;;;47.53;;
42098;SDS011;27758;55.900;8.516;2023-02-15T09:06:30;132.77;;;47.38;;
42098;SDS011;27758;55.900;8.516;2023-02-15T09:08:56;136.88;;;48.55;;
42098;SDS011;27758;55.900;8.516;2023-02-15T09:11:24;137.82;;;47.70;;
42098;SDS011;27758;55.900;8.516;2023-02-15T09:13:59;124.90;;;44.77;;
42098;SDS011;27758;55.900;8.516;2023-02-15T09:16:30;165.50;;;53.47;;
42098;SDS011;27758;55.900;8.516;2023-02-15T09:19:01;119.53;;;47.65;;
42098;SDS011;27758;55.900;8.516;2023-02-15T09:21:27;127.47;;;47.10;;
42098;SDS011;27758;55.900;8.516;2023-02-15T09:23:57;175.98;;;51.67;;
42098;SDS011;27758;55.900;8.516;2023-02-15T09:26:25;126.22;;;49.08;;
42098;SDS011;27758;55.900;8.516;2023-02-15T09:28:54;157.10;;;50.92;;
42098;SDS011;27758;55.900;8.516;2023-02-15T09:31:23;163.23;;;49.58;;
42098;SDS011;27758;55.900;8.516;2023-02-15T09:33:50;137.35;;;48.60;;
42098;SDS011;27758;55.900;8.516;2023-02-15T09:38:56;136.38;;;51.17;;
42098;SDS011;27758;55.900;8.516;2023-02-15T09:49:10;153.75;;;50.40;;
42098;SDS011;27758;55.900;8.516;2023-02-15T09:57:30;137.15;;;51.60;;
42098;SDS011;27758;55.900;8.516;2023-02-15T10:11:01;191.90;;;61.97;;
42098;SDS011;27758;55.900;8.516;2023-02-15T10:14:06;196.15;;;60.63;;
42098;SDS011;27758;55.900;8.516;2023-02-15T10:19:44;191.32;;;59.65;;
42098;SDS011;27758;55.900;8.516;2023-02-15T10:25:23;315.75;;;70.25;;
42098;SDS011;27758;55.900;8.516;2023-02-15T10:28:22;234.93;;;64.57;;
42098;SDS011;27758;55.900;8.516;2023-02-15T10:30:51;279.38;;;68.18;;
42098;SDS011;27758;55.900;8.516;2023-02-15T10:36:16;256.92;;;71.85;;
42098;SDS011;27758;55.900;8.516;2023-02-15T10:44:34;228.00;;;68.95;;
42098;SDS011;27758;55.900;8.516;2023-02-15T11:06:28;340.58;;;82.88;;
42098;SDS011;27758;55.900;8.516;2023-02-15T11:08:57;218.80;;;78.60;;
42098;SDS011;27758;55.900;8.516;2023-02-15T11:11:29;208.02;;;72.82;;
42098;SDS011;27758;55.900;8.516;2023-02-15T11:13:59;254.15;;;82.60;;
42098;SDS011;27758;55.900;8.516;2023-02-15T11:16:32;245.20;;;79.95;;
42098;SDS011;27758;55.900;8.516;2023-02-15T11:19:09;254.32;;;81.25;;
42098;SDS011;27758;55.900;8.516;2023-02-15T11:21:40;238.88;;;77.40;;
42098;SDS011;27758;55.900;8.516;2023-02-15T11:24:13;235.98;;;78.63;;
42098;SDS011;27758;55.900;8.516;2023-02-15T11:26:47;253.07;;;81.95;;
42098;SDS011;27758;55.900;8.516;2023-02-15T11:34:56;220.88;;;76.88;;
42098;SDS011;27758;55.900;8.516;2023-02-15T11:37:24;244.55;;;80.47;;
42098;SDS011;27758;55.900;8.516;2023-02-15T11:40:27;235.30;;;79.40;;
42098;SDS011;27758;55.900;8.516;2023-02-15T11:42:58;243.52;;;81.43;;
42098;SDS011;27758;55.900;8.516;2023-02-15T11:45:28;243.68;;;78.53;;
42098;SDS011;27758;55.900;8.516;2023-02-15T11:47:56;265.40;;;83.68;;
42098;SDS011;27758;55.900;8.516;2023-02-15T11:50:24;241.70;;;83.97;;
42098;SDS011;27758;55.900;8.516;2023-02-15T11:52:52;244.77;;;84.60;;
42098;SDS011;27758;55.900;8.516;2023-02-15T11:55:25;249.82;;;81.50;;
42098;SDS011;27758;55.900;8.516;2023-02-15T11:57:59;260.33;;;85.53;;
42098;SDS011;27758;55.900;8.516;2023-02-15T12:00:37;240.95;;;85.65;;
42098;SDS011;27758;55.900;8.516;2023-02-15T12:03:13;224.43;;;81.32;;
42098;SDS011;27758;55.900;8.516;2023-02-15T12:05:43;240.13;;;85.60;;
42098;SDS011;27758;55.900;8.516;2023-02-15T12:08:16;239.30;;;83.78;;
42098;SDS011;27758;55.900;8.516;2023-02-15T12:11:00;248.45;;;85.55;;
42098;SDS011;27758;55.900;8.516;2023-02-15T12:16:26;238.60;;;85.50;;
42098;SDS011;27758;55.900;8.516;2023-02-15T12:18:55;250.15;;;87.65;;
42098;SDS011;27758;55.900;8.516;2023-02-15T12:21:27;256.95;;;88.60;;
42098;SDS011;27758;55.900;8.516;2023-02-15T12:23:58;255.18;;;87.72;;
42098;SDS011;27758;55.900;8.516;2023-02-15T12:26:34;263.15;;;89.47;;
42098;SDS011;27758;55.900;8.516;2023-02-15T12:29:06;259.73;;;90.40;;
42098;SDS011;27758;55.900;8.516;2023-02-15T12:31:40;263.23;;;91.72;;
42098;SDS011;27758;55.900;8.516;2023-02-15T12:34:11;250.65;;;91.97;;
42098;SDS011;27758;55.900;8.516;2023-02-15T12:36:47;248.57;;;89.95;;
42098;SDS011;27758;55.900;8.516;2023-02-15T12:41:45;259.08;;;89.20;;
42098;SDS011;27758;55.900;8.516;2023-02-15T12:44:35;252.93;;;89.60;;
42098;SDS011;27758;55.900;8.516;2023-02-15T12:47:06;249.27;;;88.30;;
42098;SDS011;27758;55.900;8.516;2023-02-15T12:49:43;246.20;;;89.53;;
42098;SDS011;27758;55.900;8.516;2023-02-15T12:52:28;241.50;;;85.88;;
42098;SDS011;27758;55.900;8.516;2023-02-15T12:54:53;249.38;;;87.32;;
42098;SDS011;27758;55.900;8.516;2023-02-15T12:57:23;252.10;;;89.63;;
42098;SDS011;27758;55.900;8.516;2023-02-15T13:02:30;245.27;;;90.05;;
42098;SDS011;27758;55.900;8.516;2023-02-15T13:07:38;232.52;;;85.70;;
42098;SDS011;27758;55.900;8.516;2023-02-15T13:10:21;271.55;;;96.65;;
42098;SDS011;27758;55.900;8.516;2023-02-15T13:12:50;239.30;;;85.80;;
42098;SDS011;27758;55.900;8.516;2023-02-15T13:17:57;244.43;;;90.28;;
42098;SDS011;27758;55.900;8.516;2023-02-15T13:20:24;244.27;;;90.25;;
42098;SDS011;27758;55.900;8.516;2023-02-15T13:22:54;218.82;;;83.60;;
42098;SDS011;27758;55.900;8.516;2023-02-15T13:25:45;217.50;;;81.97;;
42098;SDS011;27758;55.900;8.516;2023-02-15T13:28:15;189.32;;;79.05;;
42098;SDS011;27758;55.900;8.516;2023-02-15T13:30:46;213.70;;;80.35;;
42098;SDS011;27758;55.900;8.516;2023-02-15T13:35:45;192.35;;;74.75;;
42098;SDS011;27758;55.900;8.516;2023-02-15T13:38:51;203.05;;;79.18;;
42098;SDS011;27758;55.900;8.516;2023-02-15T13:52:23;176.23;;;72.53;;
42098;SDS011;27758;55.900;8.516;2023-02-15T13:58:04;174.75;;;72.28;;
42098;SDS011;27758;55.900;8.516;2023-02-15T14:00:44;169.52;;;72.97;;
42098;SDS011;27758;55.900;8.516;2023-02-15T14:06:29;174.93;;;71.05;;
42098;SDS011;27758;55.900;8.516;2023-02-15T14:17:54;162.52;;;68.22;;
42098;SDS011;27758;55.900;8.516;2023-02-15T14:20:36;153.75;;;67.15;;
42098;SDS011;27758;55.900;8.516;2023-02-15T14:26:06;148.57;;;63.90;;
42098;SDS011;27758;55.900;8.516;2023-02-15T14:31:25;151.60;;;66.18;;
42098;SDS011;27758;55.900;8.516;2023-02-15T14:33:58;152.63;;;65.82;;
42098;SDS011;27758;55.900;8.516;2023-02-15T14:36:24;139.65;;;66.22;;
42098;SDS011;27758;55.900;8.516;2023-02-15T14:42:17;123.20;;;61.13;;
42098;SDS011;27758;55.900;8.516;2023-02-15T14:45:12;125.93;;;59.15;;
42098;SDS011;27758;55.900;8.516;2023-02-15T14:47:55;129.18;;;60.83;;
42098;SDS011;27758;55.900;8.516;2023-02-15T14:53:15;122.07;;;58.10;;
42098;SDS011;27758;55.900;8.516;2023-02-15T15:01:27;116.00;;;56.55;;
42098;SDS011;27758;55.900;8.516;2023-02-15T15:03:59;116.25;;;56.53;;
42098;SDS011;27758;55.900;8.516;2023-02-15T15:06:30;121.03;;;58.95;;
42098;SDS011;27758;55.900;8.516;2023-02-15T15:09:08;120.57;;;59.55;;
42098;SDS011;27758;55.900;8.516;2023-02-15T15:11:38;124.97;;;57.15;;
42098;SDS011;27758;55.900;8.516;2023-02-15T15:14:07;118.07;;;55.78;;
42098;SDS011;27758;55.900;8.516;2023-02-15T15:19:03;120.63;;;56.40;;
42098;SDS011;27758;55.900;8.516;2023-02-15T15:48:57;130.75;;;63.30;;
42098;SDS011;27758;55.900;8.516;2023-02-15T15:51:33;117.18;;;58.85;;
42098;SDS011;27758;55.900;8.516;2023-02-15T15:54:03;119.10;;;58.80;;
42098;SDS011;27758;55.900;8.516;2023-02-15T15:56:30;126.20;;;59.45;;
42098;SDS011;27758;55.900;8.516;2023-02-15T16:01:27;133.75;;;61.10;;
42098;SDS011;27758;55.900;8.516;2023-02-15T16:03:56;133.50;;;59.53;;
42098;SDS011;27758;55.900;8.516;2023-02-15T16:06:36;132.15;;;59.30;;
42098;SDS011;27758;55.900;8.516;2023-02-15T16:11:43;138.23;;;61.55;;
42098;SDS011;27758;55.900;8.516;2023-02-15T16:14:11;148.35;;;62.28;;
42098;SDS011;27758;55.900;8.516;2023-02-15T16:16:40;145.73;;;60.95;;
42098;SDS011;27758;55.900;8.516;2023-02-15T16:19:16;143.63;;;61.28;;
42098;SDS011;27758;55.900;8.516;2023-02-15T16:21:46;130.57;;;61.53;;
42098;SDS011;27758;55.900;8.516;2023-02-15T16:24:16;144.45;;;65.35;;
42098;SDS011;27758;55.900;8.516;2023-02-15T16:27:08;137.05;;;62.72;;
42098;SDS011;27758;55.900;8.516;2023-02-15T16:29:39;132.35;;;62.60;;
42098;SDS011;27758;55.900;8.516;2023-02-15T16:32:14;135.02;;;63.97;;
42098;SDS011;27758;55.900;8.516;2023-02-15T16:34:52;144.35;;;66.30;;
42098;SDS011;27758;55.900;8.516;2023-02-15T16:37:19;153.43;;;72.68;;
42098;SDS011;27758;55.900;8.516;2023-02-15T16:39:48;154.98;;;67.13;;
42098;SDS011;27758;55.900;8.516;2023-02-15T16:42:14;152.98;;;68.00;;
42098;SDS011;27758;55.900;8.516;2023-02-15T16:44:43;155.77;;;70.65;;
42098;SDS011;27758;55.900;8.516;2023-02-15T16:47:15;153.93;;;72.30;;
42098;SDS011;27758;55.900;8.516;2023-02-15T16:49:48;167.55;;;73.43;;
42098;SDS011;27758;55.900;8.516;2023-02-15T16:52:23;158.82;;;75.50;;
42098;SDS011;27758;55.900;8.516;2023-02-15T16:54:53;177.55;;;78.03;;
42098;SDS011;27758;55.900;8.516;2023-02-15T16:57:22;169.05;;;75.13;;
42098;SDS011;27758;55.900;8.516;2023-02-15T16:59:52;170.02;;;76.85;;
42098;SDS011;27758;55.900;8.516;2023-02-15T17:02:23;173.82;;;77.15;;
42098;SDS011;27758;55.900;8.516;2023-02-15T17:05:25;168.80;;;74.25;;
42098;SDS011;27758;55.900;8.516;2023-02-15T17:07:51;179.52;;;79.90;;
42098;SDS011;27758;55.900;8.516;2023-02-15T17:10:39;183.60;;;80.75;;
42098;SDS011;27758;55.900;8.516;2023-02-15T17:13:13;186.02;;;80.50;;
42098;SDS011;27758;55.900;8.516;2023-02-15T17:15:40;190.90;;;83.70;;
42098;SDS011;27758;55.900;8.516;2023-02-15T17:18:11;174.45;;;79.80;;
42098;SDS011;27758;55.900;8.516;2023-02-15T17:20:43;171.80;;;79.18;;
42098;SDS011;27758;55.900;8.516;2023-02-15T17:23:22;182.05;;;82.15;;
42098;SDS011;27758;55.900;8.516;2023-02-15T17:26:11;195.10;;;83.97;;
42098;SDS011;27758;55.900;8.516;2023-02-15T17:29:20;177.85;;;78.22;;
42098;SDS011;27758;55.900;8.516;2023-02-15T17:31:48;181.38;;;76.35;;
42098;SDS011;27758;55.900;8.516;2023-02-15T17:37:13;200.15;;;81.45;;
42098;SDS011;27758;55.900;8.516;2023-02-15T17:39:53;175.93;;;84.15;;
42098;SDS011;27758;55.900;8.516;2023-02-15T17:42:19;194.15;;;87.03;;
42098;SDS011;27758;55.900;8.516;2023-02-15T17:44:45;198.02;;;82.97;;